Time;durP1;ratioP1;P1;durP2;ratioP2;P2;SDS_P1;SDS_P2;PMS_P1;PMS_P2;Temp;Humidity;BMP_temperature;BMP_pressure;BME280_temperature;BME280_humidity;BME280_pressure;Samples;Min_cycle;Max_cycle;Signal;HPM_P1;HPM_P2
2022/03/06 00:00:11;;;;;;;16.40;12.83;;;2.70;76.20;;;;;;10437806;28;20201;-81
2022/03/06 00:05:16;;;;;;;14.30;11.33;;;2.80;77.30;;;;;;10424032;28;20244;-80
2022/03/06 00:10:23;;;;;;;14.60;11.93;;;2.90;78.40;;;;;;10414814;28;20221;-80
2022/03/06 00:15:26;;;;;;;19.00;13.80;;;2.90;78.00;;;;;;10429132;28;20229;-80
2022/03/06 00:20:29;;;;;;;16.07;12.80;;;3.00;77.00;;;;;;10441723;28;20592;-80
2022/03/06 00:25:32;;;;;;;21.53;15.47;;;3.00;77.70;;;;;;10440286;28;20190;-80
2022/03/06 00:30:37;;;;;;;16.63;13.33;;;3.00;77.70;;;;;;10443350;28;20205;-80
2022/03/06 00:35:40;;;;;;;15.70;13.40;;;3.00;78.30;;;;;;10434475;28;20689;-80
2022/03/06 00:40:45;;;;;;;16.07;12.77;;;3.00;77.80;;;;;;10404129;28;20373;-80
2022/03/06 00:45:47;;;;;;;17.57;12.37;;;3.00;76.70;;;;;;10404777;28;20209;-80
2022/03/06 00:50:50;;;;;;;14.53;11.90;;;2.90;75.20;;;;;;10440070;28;20214;-80
2022/03/06 00:55:53;;;;;;;15.20;12.37;;;2.80;74.60;;;;;;10434610;28;20601;-80
2022/03/06 01:00:58;;;;;;;14.90;12.60;;;2.70;76.90;;;;;;10436380;28;20638;-80
2022/03/06 01:06:00;;;;;;;13.57;11.60;;;2.60;77.50;;;;;;10433644;28;20194;-79
2022/03/06 01:11:04;;;;;;;14.57;12.50;;;2.60;77.60;;;;;;10415559;28;20217;-81
2022/03/06 01:16:06;;;;;;;16.83;12.30;;;2.50;78.10;;;;;;10430446;28;20201;-80
2022/03/06 01:21:08;;;;;;;16.23;12.63;;;2.40;78.30;;;;;;10442830;28;20221;-81
2022/03/06 01:26:12;;;;;;;17.03;13.30;;;2.50;79.00;;;;;;10444466;28;20660;-80
2022/03/06 01:31:14;;;;;;;14.67;12.50;;;2.50;78.10;;;;;;10420972;28;20252;-81
2022/03/06 01:36:16;;;;;;;14.23;12.20;;;2.40;77.80;;;;;;10426150;28;20280;-80
2022/03/06 01:41:20;;;;;;;13.50;11.47;;;2.40;79.70;;;;;;10424662;28;20308;-80
2022/03/06 01:46:22;;;;;;;14.03;11.87;;;2.40;79.00;;;;;;10412610;28;20637;-80
2022/03/06 01:51:24;;;;;;;13.57;11.63;;;2.40;77.70;;;;;;10420885;28;20217;-80
2022/03/06 01:56:28;;;;;;;15.30;12.70;;;2.30;78.80;;;;;;10435437;28;20232;-81
2022/03/06 02:01:31;;;;;;;15.37;11.97;;;2.20;78.80;;;;;;10434628;28;20532;-80
2022/03/06 02:06:36;;;;;;;16.47;13.40;;;2.20;79.20;;;;;;10435086;28;20658;-80
2022/03/06 02:11:40;;;;;;;15.40;12.83;;;2.20;78.60;;;;;;10434964;28;20308;-80
2022/03/06 02:16:42;;;;;;;16.03;13.63;;;2.10;79.50;;;;;;10424208;28;20194;-80
2022/03/06 02:21:49;;;;;;;14.73;12.70;;;2.10;79.80;;;;;;10439753;28;20227;-80
2022/03/06 02:26:52;;;;;;;14.30;12.30;;;2.10;80.80;;;;;;10435838;28;20235;-79
2022/03/06 02:31:54;;;;;;;14.27;12.63;;;2.10;80.00;;;;;;10422423;28;20224;-79
2022/03/06 02:37:01;;;;;;;15.67;12.83;;;2.10;81.00;;;;;;10455835;28;20259;-81
2022/03/06 02:42:03;;;;;;;16.23;12.80;;;2.10;79.30;;;;;;10480920;22;20236;-83
2022/03/06 02:47:06;;;;;;;16.97;12.87;;;2.10;80.20;;;;;;10430225;28;20224;-82
2022/03/06 02:52:09;;;;;;;15.50;13.30;;;2.00;79.50;;;;;;10402536;28;20319;-85
2022/03/06 02:57:12;;;;;;;14.90;12.40;;;1.90;79.40;;;;;;10393287;28;20292;-83
2022/03/06 03:02:14;;;;;;;17.40;13.10;;;1.90;79.90;;;;;;10396343;28;20234;-83
2022/03/06 03:07:17;;;;;;;16.10;12.63;;;1.80;80.20;;;;;;10373922;28;20206;-85
2022/03/06 03:12:20;;;;;;;16.10;13.47;;;1.80;79.90;;;;;;10381373;28;20241;-82
2022/03/06 03:17:22;;;;;;;16.00;13.40;;;1.80;80.50;;;;;;10382842;28;20272;-83
2022/03/06 03:22:26;;;;;;;15.93;12.90;;;1.80;80.70;;;;;;10369967;28;20238;-83
2022/03/06 03:27:28;;;;;;;16.20;13.60;;;1.70;80.70;;;;;;10402239;28;20193;-84
2022/03/06 03:32:31;;;;;;;16.57;13.20;;;1.70;81.80;;;;;;10348374;28;20305;-84
2022/03/06 03:37:35;;;;;;;15.53;13.50;;;1.60;83.00;;;;;;10364298;28;20228;-84
2022/03/06 03:42:37;;;;;;;16.40;12.77;;;1.70;81.10;;;;;;10356248;28;20233;-84
2022/03/06 03:47:40;;;;;;;15.63;14.03;;;1.60;80.70;;;;;;10389679;28;20277;-83
2022/03/06 03:52:44;;;;;;;18.60;14.20;;;1.60;82.20;;;;;;10375173;28;20218;-82
2022/03/06 03:57:46;;;;;;;15.57;13.73;;;1.50;80.60;;;;;;10371413;28;20210;-83
2022/03/06 04:02:48;;;;;;;19.53;15.13;;;1.50;80.60;;;;;;10350214;28;20221;-84
2022/03/06 04:07:52;;;;;;;16.63;13.40;;;1.40;82.80;;;;;;10379944;28;20209;-83
2022/03/06 04:12:54;;;;;;;16.17;14.40;;;1.40;81.90;;;;;;10374266;28;20225;-84
2022/03/06 04:17:56;;;;;;;19.30;14.60;;;1.40;83.50;;;;;;10357243;28;20199;-84
2022/03/06 04:22:59;;;;;;;18.13;14.00;;;1.40;84.60;;;;;;10373640;28;20218;-83
2022/03/06 04:28:01;;;;;;;15.60;13.27;;;1.50;83.30;;;;;;10375914;28;20203;-83
2022/03/06 04:33:04;;;;;;;17.47;13.90;;;1.50;82.60;;;;;;10372470;28;20222;-84
2022/03/06 04:38:08;;;;;;;17.10;14.40;;;1.50;82.30;;;;;;10402877;28;20292;-84
2022/03/06 04:43:10;;;;;;;16.73;14.70;;;1.40;82.90;;;;;;10408722;28;20595;-84
2022/03/06 04:48:12;;;;;;;18.50;14.63;;;1.30;82.30;;;;;;10380872;28;20220;-83
2022/03/06 04:53:16;;;;;;;17.83;13.90;;;1.30;82.90;;;;;;10402437;28;20218;-84
2022/03/06 04:58:18;;;;;;;19.50;15.00;;;1.30;83.70;;;;;;10401677;28;20216;-84
2022/03/06 05:03:20;;;;;;;17.37;14.17;;;1.30;83.50;;;;;;10386750;28;20249;-83
2022/03/06 05:08:26;;;;;;;17.83;15.10;;;1.30;82.50;;;;;;10402130;28;20244;-83
2022/03/06 05:13:28;;;;;;;17.40;13.80;;;1.20;83.40;;;;;;10401755;28;20222;-84
2022/03/06 05:18:30;;;;;;;17.60;14.30;;;1.30;83.40;;;;;;10402258;28;20293;-84
2022/03/06 05:23:33;;;;;;;15.53;13.40;;;1.20;83.50;;;;;;10380527;28;20217;-83
2022/03/06 05:28:36;;;;;;;19.00;15.00;;;1.20;83.00;;;;;;10384921;28;20241;-84
2022/03/06 05:33:38;;;;;;;17.90;14.53;;;1.20;82.20;;;;;;10385274;28;20320;-84
2022/03/06 05:38:41;;;;;;;21.50;16.07;;;1.10;83.50;;;;;;10404084;28;20575;-84
2022/03/06 05:43:44;;;;;;;20.90;15.30;;;1.20;83.50;;;;;;10375571;28;20226;-84
2022/03/06 05:48:46;;;;;;;22.80;17.27;;;1.20;84.30;;;;;;10406904;28;20189;-84
2022/03/06 05:53:49;;;;;;;20.90;16.60;;;1.30;83.40;;;;;;10398245;28;20712;-85
2022/03/06 05:58:51;;;;;;;19.67;16.13;;;1.40;84.00;;;;;;10397559;28;20200;-83
2022/03/06 06:03:53;;;;;;;19.23;15.00;;;1.50;85.20;;;;;;10376787;28;20618;-83
2022/03/06 06:08:57;;;;;;;19.60;15.97;;;1.50;85.10;;;;;;10394802;28;20203;-83
2022/03/06 06:13:59;;;;;;;21.10;16.27;;;1.60;86.10;;;;;;10401234;28;20221;-85
2022/03/06 06:19:02;;;;;;;18.63;15.37;;;1.70;85.90;;;;;;10386231;28;20198;-84
2022/03/06 06:24:06;;;;;;;20.60;14.93;;;1.70;84.80;;;;;;10380169;28;20218;-84
2022/03/06 06:29:08;;;;;;;19.80;15.90;;;1.70;86.40;;;;;;10404209;28;20198;-84
2022/03/06 06:34:11;;;;;;;17.97;15.40;;;1.70;86.60;;;;;;10387621;28;20241;-82
2022/03/06 06:39:15;;;;;;;18.13;16.23;;;1.80;85.20;;;;;;10368125;28;20529;-85
2022/03/06 06:44:17;;;;;;;19.60;15.60;;;1.80;86.40;;;;;;10360856;28;20234;-84
2022/03/06 06:49:20;;;;;;;20.83;16.40;;;1.80;85.70;;;;;;10357322;28;20676;-84
2022/03/06 06:54:24;;;;;;;20.17;15.47;;;1.90;87.30;;;;;;10377297;28;20686;-83
2022/03/06 06:59:26;;;;;;;18.43;14.97;;;1.90;86.20;;;;;;10360100;28;20202;-83
2022/03/06 07:04:28;;;;;;;20.97;17.07;;;2.00;85.80;;;;;;10361499;28;20223;-84
2022/03/06 07:09:32;;;;;;;20.63;16.40;;;2.00;86.40;;;;;;10391557;28;20234;-83
2022/03/06 07:14:34;;;;;;;18.77;15.70;;;2.10;86.90;;;;;;10374757;28;20257;-84
2022/03/06 07:19:36;;;;;;;20.33;16.60;;;2.20;86.10;;;;;;10364311;28;20592;-83
2022/03/06 07:24:40;;;;;;;19.33;16.27;;;2.30;86.90;;;;;;10375255;28;20210;-84
2022/03/06 07:29:42;;;;;;;20.00;17.40;;;2.30;86.70;;;;;;10375482;28;20431;-84
2022/03/06 07:34:44;;;;;;;24.23;17.47;;;2.40;85.90;;;;;;10382682;28;20250;-84
2022/03/06 07:39:48;;;;;;;20.33;16.80;;;2.40;86.70;;;;;;10375065;28;20209;-85
2022/03/06 07:44:50;;;;;;;22.17;17.10;;;2.60;87.00;;;;;;10362615;28;20226;-84
2022/03/06 07:49:52;;;;;;;20.97;16.63;;;2.70;85.60;;;;;;10396745;28;20221;-85
2022/03/06 07:54:55;;;;;;;21.50;17.63;;;2.70;86.30;;;;;;10388937;28;20225;-86
2022/03/06 07:59:58;;;;;;;20.70;17.10;;;2.90;86.20;;;;;;10362682;28;20673;-87
2022/03/06 08:05:00;;;;;;;19.67;16.53;;;3.00;85.90;;;;;;10382346;28;20222;-86
2022/03/06 08:10:06;;;;;;;18.77;15.30;;;3.20;86.30;;;;;;10372365;28;20198;-86
2022/03/06 08:15:09;;;;;;;20.43;17.03;;;3.50;85.20;;;;;;10377786;28;20222;-85
2022/03/06 08:20:12;;;;;;;18.73;16.20;;;3.60;85.70;;;;;;10389570;28;20226;-87
2022/03/06 08:25:19;;;;;;;20.90;16.30;;;3.90;85.80;;;;;;10387159;28;20230;-87
2022/03/06 08:30:21;;;;;;;19.30;15.67;;;4.20;84.80;;;;;;10381534;28;20206;-86
2022/03/06 08:35:23;;;;;;;23.10;16.87;;;4.40;83.80;;;;;;10416197;28;20769;-86
2022/03/06 08:40:27;;;;;;;16.77;14.10;;;4.60;84.30;;;;;;10411929;28;20241;-86
2022/03/06 08:45:29;;;;;;;17.77;15.77;;;4.80;84.10;;;;;;10389706;28;20668;-85
2022/03/06 08:50:31;;;;;;;17.00;14.43;;;5.00;82.20;;;;;;10374504;28;20202;-85
2022/03/06 08:55:34;;;;;;;18.43;14.50;;;5.20;83.10;;;;;;10374592;28;20286;-84
2022/03/06 09:00:37;;;;;;;16.20;14.50;;;5.40;80.50;;;;;;10366402;28;20770;-85
2022/03/06 09:05:40;;;;;;;16.00;14.30;;;5.60;74.50;;;;;;10401179;28;20295;-85
2022/03/06 09:10:43;;;;;;;19.23;14.97;;;5.60;75.10;;;;;;10354791;28;20237;-85
2022/03/06 09:15:45;;;;;;;16.63;14.70;;;5.70;75.80;;;;;;10365469;28;20220;-83
2022/03/06 09:20:48;;;;;;;16.60;13.47;;;5.90;74.30;;;;;;10376449;28;20202;-86
2022/03/06 09:25:51;;;;;;;16.80;14.80;;;5.90;76.80;;;;;;10389624;28;20277;-86
2022/03/06 09:30:53;;;;;;;18.17;14.43;;;6.10;76.40;;;;;;10354963;28;20820;-85
2022/03/06 09:35:55;;;;;;;16.17;13.80;;;6.30;77.60;;;;;;10390394;28;20305;-85
2022/03/06 09:41:03;;;;;;;16.27;14.50;;;6.60;75.10;;;;;;10353409;28;20229;-84
2022/03/06 09:46:07;;;;;;;17.57;14.60;;;6.70;73.20;;;;;;10354190;28;20199;-87
2022/03/06 09:51:09;;;;;;;17.27;14.40;;;6.80;70.00;;;;;;10346177;28;20237;-87
2022/03/06 09:56:13;;;;;;;16.10;14.30;;;6.80;72.70;;;;;;10385457;28;20218;-85
2022/03/06 10:01:15;;;;;;;16.40;13.93;;;6.90;70.40;;;;;;10359659;28;20336;-84
2022/03/06 10:06:17;;;;;;;15.00;13.03;;;7.00;68.60;;;;;;10366269;28;20671;-86
2022/03/06 10:11:21;;;;;;;17.03;13.50;;;7.10;66.00;;;;;;10366933;28;20316;-84
2022/03/06 10:16:23;;;;;;;16.20;14.07;;;7.10;64.30;;;;;;10369785;28;20230;-84
2022/03/06 10:21:27;;;;;;;16.97;14.50;;;7.10;64.40;;;;;;10382220;28;20289;-86
2022/03/06 10:26:32;;;;;;;14.57;12.90;;;7.00;65.80;;;;;;10369271;28;20629;-83
2022/03/06 10:31:35;;;;;;;16.53;14.60;;;6.90;67.30;;;;;;10384925;28;20222;-82
2022/03/06 10:36:44;;;;;;;15.20;13.60;;;6.80;64.20;;;;;;10366023;28;20258;-84
2022/03/06 10:41:49;;;;;;;14.57;13.07;;;6.70;65.80;;;;;;10383608;28;20227;-83
2022/03/06 10:47:03;;;;;;;13.63;11.63;;;6.80;62.40;;;;;;10382456;28;20230;-86
2022/03/06 10:52:16;;;;;;;15.30;13.70;;;6.80;62.40;;;;;;10375360;28;20253;-83
2022/03/06 10:57:20;;;;;;;15.17;13.50;;;6.80;64.00;;;;;;10376423;28;20222;-84
2022/03/06 11:02:24;;;;;;;14.93;12.30;;;7.00;64.10;;;;;;10371860;28;20218;-82
2022/03/06 11:07:29;;;;;;;14.70;13.10;;;7.30;64.70;;;;;;10389110;28;20194;-83
2022/03/06 11:12:33;;;;;;;12.73;11.20;;;7.50;62.90;;;;;;10409921;28;20217;-84
2022/03/06 11:17:36;;;;;;;14.20;12.07;;;7.50;64.00;;;;;;10379391;28;20268;-84
2022/03/06 11:22:45;;;;;;;13.53;11.63;;;7.40;62.10;;;;;;10364417;28;20222;-85
2022/03/06 11:28:01;;;;;;;13.80;12.20;;;7.40;61.90;;;;;;10364312;28;20197;-81
2022/03/06 11:33:07;;;;;;;13.80;12.37;;;7.30;64.00;;;;;;10365400;28;20711;-85
2022/03/06 11:38:10;;;;;;;14.90;13.20;;;7.30;59.40;;;;;;10378458;28;20217;-85
2022/03/06 11:43:32;;;;;;;15.10;13.50;;;7.30;59.40;;;;;;10375324;28;20246;-83
2022/03/06 11:49:06;;;;;;;13.80;11.83;;;7.20;64.30;;;;;;10370665;28;20198;-85
2022/03/06 11:54:10;;;;;;;13.20;11.80;;;7.20;65.20;;;;;;10375979;28;20225;-85
2022/03/06 11:59:33;;;;;;;16.23;12.00;;;7.10;65.40;;;;;;10381872;28;20198;-86
2022/03/06 12:04:39;;;;;;;12.33;11.03;;;7.00;60.10;;;;;;10345529;28;20301;-86
2022/03/06 12:09:42;;;;;;;11.20;9.93;;;7.10;59.00;;;;;;10365254;28;20527;-85
2022/03/06 12:14:49;;;;;;;12.13;10.87;;;7.10;59.80;;;;;;10389499;28;20302;-85
2022/03/06 12:20:31;;;;;;;12.03;10.83;;;7.30;59.90;;;;;;10410785;28;20261;-84
2022/03/06 12:25:39;;;;;;;13.43;11.97;;;7.80;60.00;;;;;;10406135;28;20281;-84
2022/03/06 12:30:42;;;;;;;11.83;10.80;;;8.20;59.90;;;;;;10380525;28;20613;-85
2022/03/06 12:35:44;;;;;;;11.07;9.93;;;8.40;58.20;;;;;;10369326;28;21537;-82
2022/03/06 12:40:46;;;;;;;11.57;10.43;;;8.50;60.00;;;;;;10389159;28;20202;-83
2022/03/06 12:45:51;;;;;;;11.40;10.30;;;8.60;58.60;;;;;;10367100;28;20198;-83
2022/03/06 12:50:53;;;;;;;12.03;10.83;;;8.60;58.30;;;;;;10348019;28;20226;-82
2022/03/06 12:55:59;;;;;;;12.80;10.80;;;8.30;58.50;;;;;;10341799;28;20218;-84
2022/03/06 13:01:08;;;;;;;12.80;11.17;;;8.10;58.90;;;;;;10369135;28;20194;-81
2022/03/06 13:06:16;;;;;;;11.40;9.93;;;8.00;61.50;;;;;;10368388;28;20201;-82
2022/03/06 13:11:19;;;;;;;11.10;9.90;;;7.80;57.90;;;;;;10370906;28;20240;-82
2022/03/06 13:16:26;;;;;;;11.17;8.87;;;7.80;60.40;;;;;;10353116;28;20222;-85
2022/03/06 13:21:29;;;;;;;11.37;10.27;;;7.70;58.10;;;;;;10373645;28;20236;-85
2022/03/06 13:26:32;;;;;;;11.43;10.43;;;7.70;60.30;;;;;;10366574;28;20208;-86
2022/03/06 13:31:44;;;;;;;11.63;10.43;;;7.90;59.70;;;;;;10371228;28;20230;-85
2022/03/06 13:36:46;;;;;;;10.97;9.87;;;8.10;58.80;;;;;;10358902;28;20222;-85
2022/03/06 13:41:54;;;;;;;13.60;11.40;;;8.20;55.80;;;;;;10371465;28;20657;-85
2022/03/06 13:46:57;;;;;;;11.47;10.37;;;8.20;55.40;;;;;;10383303;28;20194;-85
2022/03/06 13:52:08;;;;;;;11.43;10.33;;;8.10;58.20;;;;;;10389729;28;20244;-85
2022/03/06 13:57:13;;;;;;;11.90;10.20;;;8.00;58.10;;;;;;10357940;28;20288;-83
2022/03/06 14:02:16;;;;;;;11.30;10.20;;;7.90;59.50;;;;;;10357407;28;20221;-83
2022/03/06 14:07:25;;;;;;;11.70;10.57;;;8.00;59.40;;;;;;10357904;28;20274;-83
2022/03/06 14:12:32;;;;;;;12.60;11.30;;;8.10;61.30;;;;;;10390868;28;20229;-83
2022/03/06 14:17:38;;;;;;;12.03;10.83;;;8.20;58.70;;;;;;10371366;28;20233;-82
2022/03/06 14:22:40;;;;;;;11.30;10.20;;;8.30;57.90;;;;;;10392198;28;20218;-82
2022/03/06 14:27:42;;;;;;;13.50;10.90;;;8.40;57.90;;;;;;10382386;28;20293;-81
2022/03/06 14:32:46;;;;;;;12.80;11.50;;;8.30;60.00;;;;;;10420301;28;20229;-81
2022/03/06 14:37:52;;;;;;;11.70;10.60;;;8.10;58.50;;;;;;10370008;28;20904;-82
2022/03/06 14:42:54;;;;;;;10.73;9.63;;;7.90;60.00;;;;;;10377299;28;20248;-82
2022/03/06 14:47:59;;;;;;;12.53;11.00;;;7.70;62.90;;;;;;10388111;28;20541;-81
2022/03/06 14:53:01;;;;;;;11.60;10.50;;;7.70;64.20;;;;;;10390307;28;20222;-82
2022/03/06 14:58:03;;;;;;;14.40;11.27;;;7.80;63.00;;;;;;10381709;28;20221;-84
2022/03/06 15:03:06;;;;;;;12.03;10.67;;;7.90;61.70;;;;;;10385192;28;20728;-83
2022/03/06 15:08:08;;;;;;;11.43;10.30;;;8.00;60.60;;;;;;10404557;28;20198;-83
2022/03/06 15:13:11;;;;;;;10.70;9.70;;;8.10;58.20;;;;;;10356596;28;20217;-82
2022/03/06 15:18:14;;;;;;;11.13;10.00;;;8.10;58.50;;;;;;10372314;28;20283;-84
2022/03/06 15:23:17;;;;;;;10.57;9.57;;;8.00;60.40;;;;;;10381654;28;20215;-84
2022/03/06 15:28:20;;;;;;;11.87;10.67;;;7.90;61.90;;;;;;10388299;28;20308;-83
2022/03/06 15:33:23;;;;;;;12.00;10.80;;;7.90;59.00;;;;;;10387394;28;20594;-84
2022/03/06 15:38:25;;;;;;;11.20;10.20;;;7.80;59.80;;;;;;10393420;28;20261;-84
2022/03/06 15:43:28;;;;;;;11.80;10.60;;;7.80;59.30;;;;;;10356070;28;20698;-83
2022/03/06 15:48:31;;;;;;;11.43;10.33;;;7.70;61.80;;;;;;10403292;28;20214;-83
2022/03/06 15:53:34;;;;;;;10.77;9.67;;;7.60;58.70;;;;;;10364063;28;20221;-84
2022/03/06 15:58:36;;;;;;;12.20;10.87;;;7.50;60.50;;;;;;10401578;28;20225;-84
2022/03/06 16:03:40;;;;;;;11.77;10.43;;;7.50;59.80;;;;;;10386363;28;20751;-84
2022/03/06 16:08:42;;;;;;;11.33;10.17;;;7.40;59.00;;;;;;10368806;28;20648;-84
2022/03/06 16:13:44;;;;;;;12.33;10.90;;;7.30;60.60;;;;;;10360048;28;20225;-83
2022/03/06 16:18:48;;;;;;;12.80;11.00;;;7.30;61.90;;;;;;10364675;28;20694;-82
2022/03/06 16:23:50;;;;;;;12.07;10.97;;;7.30;62.70;;;;;;10369418;28;20607;-80
2022/03/06 16:41:51;;;;;;;11.87;10.77;;;7.10;62.70;;;;;;10365615;28;20226;-83
2022/03/06 16:46:53;;;;;;;13.13;11.73;;;7.10;58.90;;;;;;10371562;28;20666;-83
2022/03/06 16:51:55;;;;;;;13.13;11.20;;;7.00;60.30;;;;;;10382241;28;20219;-82
2022/03/06 16:56:59;;;;;;;13.00;11.80;;;6.90;61.60;;;;;;10380943;28;20226;-82
2022/03/06 17:02:01;;;;;;;12.70;11.30;;;6.80;61.80;;;;;;10384442;28;20229;-83
2022/03/06 17:07:06;;;;;;;13.80;12.50;;;6.80;64.90;;;;;;10397704;28;20233;-83
2022/03/06 17:12:10;;;;;;;12.60;11.30;;;6.80;61.00;;;;;;10398366;28;20217;-83
2022/03/06 17:17:14;;;;;;;13.47;12.17;;;6.70;61.80;;;;;;10365991;28;20219;-84
2022/03/06 17:22:16;;;;;;;12.87;11.57;;;6.60;62.40;;;;;;10379512;28;20219;-85
2022/03/06 17:27:19;;;;;;;13.23;11.87;;;6.70;62.70;;;;;;10380902;28;20203;-84
2022/03/06 17:32:21;;;;;;;10.37;9.37;;;6.60;64.20;;;;;;10390115;28;20605;-85
2022/03/06 17:37:24;;;;;;;12.53;11.33;;;6.60;62.60;;;;;;10399236;28;20302;-83
2022/03/06 17:42:27;;;;;;;13.00;11.70;;;6.60;64.20;;;;;;10435295;28;20229;-83
2022/03/06 17:47:31;;;;;;;12.10;10.90;;;6.60;62.80;;;;;;10362757;28;20201;-82
2022/03/06 17:52:33;;;;;;;15.10;12.07;;;6.50;64.00;;;;;;10379870;28;20221;-82
2022/03/06 17:57:36;;;;;;;11.93;10.83;;;6.50;64.20;;;;;;10382526;28;20748;-82
2022/03/06 18:02:38;;;;;;;11.77;10.67;;;6.50;64.70;;;;;;10357380;28;20230;-82
2022/03/06 18:07:41;;;;;;;12.57;11.20;;;6.50;65.40;;;;;;10392780;28;20201;-83
2022/03/06 18:12:44;;;;;;;13.03;11.67;;;6.50;64.50;;;;;;10341886;28;20238;-82
2022/03/06 18:17:46;;;;;;;13.03;11.10;;;6.50;64.90;;;;;;10340131;28;20280;-82
2022/03/06 18:22:49;;;;;;;14.30;11.67;;;6.50;62.40;;;;;;10368842;28;20249;-84
2022/03/06 18:27:53;;;;;;;12.20;11.03;;;6.50;64.20;;;;;;10375223;28;20711;-82
2022/03/06 18:32:55;;;;;;;13.13;11.80;;;6.50;63.00;;;;;;10341320;28;20226;-82
2022/03/06 18:37:57;;;;;;;13.63;12.30;;;6.50;66.00;;;;;;10371195;28;20232;-80
2022/03/06 18:43:01;;;;;;;13.97;12.67;;;6.50;61.70;;;;;;10378034;28;20304;-83
2022/03/06 18:48:03;;;;;;;13.70;12.50;;;6.50;60.40;;;;;;10384947;28;20198;-83
2022/03/06 18:53:05;;;;;;;13.77;12.37;;;6.40;63.90;;;;;;10389128;28;20218;-81
2022/03/06 18:58:09;;;;;;;13.90;12.57;;;6.40;64.40;;;;;;10372332;28;20225;-83
2022/03/06 19:03:11;;;;;;;13.67;12.37;;;6.40;64.10;;;;;;10400040;28;20222;-80
2022/03/06 19:08:17;;;;;;;15.30;12.30;;;6.30;64.80;;;;;;10389521;28;20197;-79
2022/03/06 19:13:23;;;;;;;13.13;11.93;;;6.30;63.30;;;;;;10404180;28;20309;-80
2022/03/06 19:18:26;;;;;;;12.60;11.50;;;6.30;64.80;;;;;;10361366;28;20777;-79
2022/03/06 19:23:28;;;;;;;15.60;12.13;;;6.30;64.90;;;;;;10385029;28;20214;-80
2022/03/06 19:28:34;;;;;;;14.10;12.60;;;6.40;62.30;;;;;;10386410;28;20186;-80
2022/03/06 19:33:36;;;;;;;14.03;12.63;;;6.30;65.20;;;;;;10366321;28;20226;-80
2022/03/06 19:38:38;;;;;;;15.07;13.57;;;6.30;63.20;;;;;;10381935;28;20214;-80
2022/03/06 19:43:43;;;;;;;12.67;11.47;;;6.30;63.40;;;;;;10388938;28;20739;-80
2022/03/06 19:48:45;;;;;;;13.77;12.37;;;6.20;63.20;;;;;;10374770;28;20241;-80
2022/03/06 19:53:48;;;;;;;13.90;12.60;;;6.20;62.70;;;;;;10380298;28;20453;-80
2022/03/06 19:58:52;;;;;;;12.00;10.90;;;6.10;63.70;;;;;;10393603;28;20240;-80
2022/03/06 20:03:54;;;;;;;12.60;11.30;;;6.10;65.70;;;;;;10403078;28;20284;-80
2022/03/06 20:08:57;;;;;;;13.20;11.97;;;6.20;64.30;;;;;;10384590;28;20198;-79
2022/03/06 20:14:00;;;;;;;12.93;11.73;;;6.20;65.10;;;;;;10379727;28;20226;-81
2022/03/06 20:19:03;;;;;;;13.37;12.17;;;6.20;60.80;;;;;;10378351;28;20265;-80
2022/03/06 20:24:05;;;;;;;11.13;10.13;;;6.10;64.10;;;;;;10364836;28;20222;-80
2022/03/06 20:29:09;;;;;;;12.80;11.70;;;6.10;60.30;;;;;;10406231;28;20187;-82
2022/03/06 20:34:11;;;;;;;12.30;11.20;;;6.10;60.50;;;;;;10357825;28;20217;-83
2022/03/06 20:39:13;;;;;;;12.97;11.77;;;6.00;63.90;;;;;;10373463;28;20706;-82
2022/03/06 20:44:17;;;;;;;11.93;10.87;;;6.00;59.20;;;;;;10403286;28;20284;-80
2022/03/06 20:49:20;;;;;;;13.40;12.20;;;5.90;63.50;;;;;;10403087;28;20565;-81
2022/03/06 20:54:22;;;;;;;13.83;12.53;;;5.90;64.00;;;;;;10372784;28;20226;-80
2022/03/06 20:59:26;;;;;;;12.20;11.20;;;5.90;63.40;;;;;;10378499;28;20249;-80
2022/03/06 21:04:28;;;;;;;13.00;11.80;;;5.90;65.30;;;;;;10415498;28;20225;-80
2022/03/06 21:09:30;;;;;;;13.33;12.13;;;5.90;65.30;;;;;;10407410;28;20229;-81
2022/03/06 21:14:33;;;;;;;12.40;11.40;;;5.90;65.50;;;;;;10401301;28;20745;-81
2022/03/06 21:19:35;;;;;;;13.77;12.30;;;5.90;62.40;;;;;;10378051;28;20217;-80
2022/03/06 21:24:37;;;;;;;13.03;11.90;;;5.90;64.60;;;;;;10376489;28;20322;-81
2022/03/06 21:29:41;;;;;;;12.40;11.30;;;5.90;65.20;;;;;;10382108;28;20230;-81
2022/03/06 21:34:43;;;;;;;14.40;12.90;;;5.90;64.70;;;;;;10384020;28;20218;-81
2022/03/06 21:39:46;;;;;;;13.40;12.10;;;6.00;64.40;;;;;;10365556;28;20313;-81
2022/03/06 21:44:50;;;;;;;14.27;12.97;;;5.90;65.00;;;;;;10387477;28;20257;-81
2022/03/06 21:49:52;;;;;;;14.70;13.40;;;5.90;64.40;;;;;;10375890;28;20226;-81
2022/03/06 21:54:54;;;;;;;14.03;12.63;;;5.90;64.80;;;;;;10389171;28;20218;-81
2022/03/06 21:59:57;;;;;;;13.57;12.17;;;5.90;65.10;;;;;;10402677;28;20209;-81
2022/03/06 22:05:00;;;;;;;15.20;13.80;;;5.90;64.90;;;;;;10374857;28;20245;-81
2022/03/06 22:10:02;;;;;;;12.83;11.70;;;5.90;65.00;;;;;;10377863;28;20209;-80
2022/03/06 22:15:07;;;;;;;13.77;12.37;;;5.80;64.10;;;;;;10389957;28;20233;-80
2022/03/06 22:20:10;;;;;;;12.40;11.30;;;5.80;64.90;;;;;;10378564;28;20309;-81
2022/03/06 22:25:12;;;;;;;13.20;12.03;;;5.90;64.40;;;;;;10398763;28;20249;-80
2022/03/06 22:30:15;;;;;;;13.30;12.20;;;5.80;64.20;;;;;;10390903;28;20205;-81
2022/03/06 22:35:18;;;;;;;13.50;12.20;;;5.80;62.10;;;;;;10381672;28;20209;-81
2022/03/06 22:40:20;;;;;;;13.30;12.10;;;5.80;65.00;;;;;;10405898;28;20213;-81
2022/03/06 22:45:24;;;;;;;14.00;12.60;;;5.70;66.40;;;;;;10413921;28;20223;-81
2022/03/06 22:50:26;;;;;;;14.10;12.80;;;5.70;65.90;;;;;;10394731;28;20662;-81
2022/03/06 22:55:32;;;;;;;14.77;13.27;;;5.80;65.80;;;;;;10416084;28;20229;-82
2022/03/06 23:01:18;;;;;;;13.97;12.67;;;5.70;65.10;;;;;;10420688;28;20259;-82
2022/03/06 23:11:40;;;;;;;13.63;12.33;;;5.70;65.10;;;;;;10383390;28;20217;-84
2022/03/06 23:16:44;;;;;;;13.37;12.03;;;5.70;63.00;;;;;;10356048;28;20223;-83
2022/03/06 23:21:46;;;;;;;13.40;11.80;;;5.60;66.30;;;;;;10371774;28;20242;-83
2022/03/06 23:26:49;;;;;;;12.47;11.47;;;5.70;64.90;;;;;;10370322;28;20194;-84
2022/03/06 23:31:52;;;;;;;13.47;12.10;;;5.60;66.30;;;;;;10401591;28;20214;-82
2022/03/06 23:36:55;;;;;;;12.33;11.27;;;5.70;65.90;;;;;;10386006;28;20682;-81
2022/03/06 23:41:57;;;;;;;12.37;11.27;;;5.60;66.70;;;;;;10376065;28;20226;-82
2022/03/06 23:47:01;;;;;;;12.60;11.40;;;5.60;63.70;;;;;;10394191;28;20288;-83
2022/03/06 23:52:03;;;;;;;12.27;11.17;;;5.60;65.40;;;;;;10374860;28;20778;-83
2022/03/06 23:57:05;;;;;;;13.47;12.30;;;5.50;65.30;;;;;;10377649;28;20207;-80
